Time;durP1;ratioP1;P1;durP2;ratioP2;P2;SDS_P1;SDS_P2;PMS_P1;PMS_P2;Temp;Humidity;BMP_temperature;BMP_pressure;BME280_temperature;BME280_humidity;BME280_pressure;Samples;Min_cycle;Max_cycle;Signal;HPM_P1;HPM_P2
2023/03/03 00:01:46;;;;;;;;;;;;;;;0.43;100.00;102342.81;5047346;28;19913;-61
2023/03/03 00:04:11;;;;;;;;;;;;;;;0.61;100.00;102340.44;5047375;28;20318;-61
2023/03/03 00:06:37;;;;;;;;;;;;;;;0.52;100.00;102347.47;5046599;28;20532;-62
2023/03/03 00:09:02;;;;;;;;;;;;;;;0.49;100.00;102347.72;5048321;28;20326;-61
2023/03/03 00:11:27;;;;;;;;;;;;;;;0.49;100.00;102358.53;5046441;28;20287;-60
2023/03/03 00:13:53;;;;;;;;;;;;;;;0.54;100.00;102360.84;5047400;28;20272;-62
2023/03/03 00:16:34;;;;;;;;;;;;;;;0.60;100.00;102362.16;5046346;28;19913;-62
2023/03/03 00:19:00;;;;;;;;;;;;;;;0.62;100.00;102363.78;5047614;28;19971;-61
2023/03/03 00:21:25;;;;;;;;;;;;;;;0.88;100.00;102356.16;5044366;28;19917;-60
2023/03/03 00:23:50;;;;;;;;;;;;;;;0.87;100.00;102367.13;5046174;28;19925;-62
2023/03/03 00:26:28;;;;;;;;;;;;;;;1.35;100.00;102358.47;5047798;28;20007;-59
2023/03/03 00:28:55;;;;;;;;;;;;;;;2.07;100.00;102363.78;5047527;28;19966;-61
2023/03/03 00:31:25;;;;;;;;;;;;;;;1.40;100.00;102359.78;5046458;28;19921;-61
2023/03/03 00:33:54;;;;;;;;;;;;;;;1.62;100.00;102357.91;5046255;28;20668;-61
2023/03/03 00:36:46;;;;;;;;;;;;;;;1.69;100.00;102354.53;5046679;28;20310;-61
2023/03/03 00:39:32;;;;;;;;;;;;;;;0.96;100.00;102356.38;5042987;28;20343;-62
2023/03/03 00:41:59;;;;;;;;;;;;;;;0.84;100.00;102362.81;5045986;28;19916;-62
2023/03/03 00:44:25;;;;;;;;;;;;;;;0.84;100.00;102365.53;5047321;28;19916;-61
2023/03/03 00:46:52;;;;;;;;;;;;;;;0.74;100.00;102361.88;5045268;28;19920;-61
2023/03/03 00:49:22;;;;;;;;;;;;;;;0.73;100.00;102354.75;5046780;28;19920;-58
2023/03/03 00:51:47;;;;;;;;;;;;;;;0.74;100.00;102359.16;5046103;28;19985;-62
2023/03/03 00:54:12;;;;;;;;;;;;;;;0.81;100.00;102356.81;5047164;28;19912;-61
2023/03/03 00:56:37;;;;;;;;;;;;;;;1.51;100.00;102362.41;5046473;28;19921;-59
2023/03/03 00:59:03;;;;;;;;;;;;;;;1.10;100.00;102362.44;5046420;28;19919;-60
2023/03/03 01:01:28;;;;;;;;;;;;;;;0.85;100.00;102364.53;5045468;28;19917;-62
2023/03/03 01:03:53;;;;;;;;;;;;;;;0.94;100.00;102365.59;5045477;28;20007;-62
2023/03/03 01:06:19;;;;;;;;;;;;;;;0.85;100.00;102364.53;5046750;28;19956;-58
2023/03/03 01:08:44;;;;;;;;;;;;;;;0.87;100.00;102377.94;5049961;28;19917;-62
2023/03/03 01:11:15;;;;;;;;;;;;;;;0.88;100.00;102372.41;5051290;28;19916;-61
2023/03/03 01:13:41;;;;;;;;;;;;;;;1.39;100.00;102377.03;5049712;28;19916;-61
2023/03/03 01:16:07;;;;;;;;;;;;;;;0.99;100.00;102377.75;5049825;28;19913;-59
2023/03/03 01:18:32;;;;;;;;;;;;;;;1.37;100.00;102378.13;5050816;28;20260;-62
2023/03/03 01:20:58;;;;;;;;;;;;;;;1.16;100.00;102379.00;5050951;28;19920;-62
2023/03/03 01:23:23;;;;;;;;;;;;;;;1.01;100.00;102381.19;5049468;28;20260;-59
2023/03/03 01:25:48;;;;;;;;;;;;;;;1.42;100.00;102379.47;5051487;28;19917;-61
2023/03/03 01:28:13;;;;;;;;;;;;;;;2.03;100.00;102381.34;5051079;28;19913;-62
2023/03/03 01:30:39;;;;;;;;;;;;;;;1.64;100.00;102378.44;5030984;28;20402;-58
2023/03/03 01:33:04;;;;;;;;;;;;;;;1.64;100.00;102388.44;5049483;28;19947;-61
2023/03/03 01:35:29;;;;;;;;;;;;;;;1.95;100.00;102392.00;5050785;28;19920;-59
2023/03/03 01:37:54;;;;;;;;;;;;;;;1.43;100.00;102385.75;5050096;28;19917;-61
2023/03/03 01:40:21;;;;;;;;;;;;;;;1.16;100.00;102395.22;5049774;28;19919;-62
2023/03/03 01:42:47;;;;;;;;;;;;;;;1.54;100.00;102378.41;5047135;28;19920;-62
2023/03/03 01:45:21;;;;;;;;;;;;;;;1.75;100.00;102391.03;5044337;28;20022;-62
2023/03/03 01:48:06;;;;;;;;;;;;;;;0.84;100.00;102394.41;5041063;28;20412;-62
2023/03/03 01:50:40;;;;;;;;;;;;;;;1.10;100.00;102384.09;5035005;28;19917;-61
2023/03/03 01:53:10;;;;;;;;;;;;;;;0.67;100.00;102395.84;5047743;28;19924;-61
2023/03/03 01:55:37;;;;;;;;;;;;;;;0.60;100.00;102402.72;5050994;28;20257;-62
2023/03/03 01:58:23;;;;;;;;;;;;;;;1.09;100.00;102387.78;5049070;28;19920;-62
2023/03/03 02:00:50;;;;;;;;;;;;;;;0.73;100.00;102387.22;5035232;28;20274;-58
2023/03/03 02:03:15;;;;;;;;;;;;;;;1.38;100.00;102393.41;5050112;28;19913;-59
2023/03/03 02:05:41;;;;;;;;;;;;;;;1.58;100.00;102394.38;5048768;28;19927;-62
2023/03/03 02:08:09;;;;;;;;;;;;;;;1.11;100.00;102393.91;5050856;28;19912;-62
2023/03/03 02:10:34;;;;;;;;;;;;;;;0.69;100.00;102396.56;5048937;28;19916;-62
2023/03/03 02:12:59;;;;;;;;;;;;;;;0.72;100.00;102390.91;5049701;28;20367;-62
2023/03/03 02:15:31;;;;;;;;;;;;;;;1.14;100.00;102396.38;5049839;28;20270;-62
2023/03/03 02:17:58;;;;;;;;;;;;;;;1.05;100.00;102392.59;5048234;28;20356;-59
2023/03/03 02:20:26;;;;;;;;;;;;;;;0.49;100.00;102395.50;5050041;28;19917;-62
2023/03/03 02:23:11;;;;;;;;;;;;;;;0.30;100.00;102411.50;5048322;28;20015;-60
2023/03/03 02:25:47;;;;;;;;;;;;;;;0.59;100.00;102398.31;5048359;28;19923;-61
2023/03/03 02:28:12;;;;;;;;;;;;;;;0.72;100.00;102399.88;5050120;28;19962;-62
2023/03/03 02:30:38;;;;;;;;;;;;;;;0.86;100.00;102401.41;5049115;28;20376;-61
2023/03/03 02:33:03;;;;;;;;;;;;;;;0.97;100.00;102401.38;5049470;28;19917;-62
2023/03/03 02:35:30;;;;;;;;;;;;;;;1.20;100.00;102393.13;5048623;28;19916;-61
2023/03/03 02:38:02;;;;;;;;;;;;;;;0.98;100.00;102400.38;5047857;28;19951;-61
2023/03/03 02:40:30;;;;;;;;;;;;;;;1.13;100.00;102390.09;5049510;28;19955;-62
2023/03/03 02:42:57;;;;;;;;;;;;;;;0.49;100.00;102396.38;5048094;28;19917;-61
2023/03/03 02:45:22;;;;;;;;;;;;;;;0.51;100.00;102398.97;5050318;28;20318;-61
2023/03/03 02:47:48;;;;;;;;;;;;;;;0.65;100.00;102390.53;5048210;28;19925;-59
2023/03/03 02:50:14;;;;;;;;;;;;;;;0.44;100.00;102390.47;5049154;28;19974;-60
2023/03/03 02:52:39;;;;;;;;;;;;;;;0.52;100.00;102388.00;5041224;28;19921;-61
2023/03/03 02:55:04;;;;;;;;;;;;;;;0.81;100.00;102391.97;5029856;28;19917;-62
2023/03/03 02:57:30;;;;;;;;;;;;;;;1.46;100.00;102386.31;5029400;28;20356;-61
2023/03/03 02:59:55;;;;;;;;;;;;;;;0.45;100.00;102394.03;5031072;28;19924;-60
2023/03/03 03:02:20;;;;;;;;;;;;;;;1.26;100.00;102379.91;5048131;28;19927;-61
2023/03/03 03:04:46;;;;;;;;;;;;;;;1.20;100.00;102387.72;5049052;28;20259;-61
2023/03/03 03:07:11;;;;;;;;;;;;;;;0.98;100.00;102396.81;5048736;28;19916;-61
2023/03/03 03:09:36;;;;;;;;;;;;;;;0.82;100.00;102391.84;5049446;28;19913;-56
2023/03/03 03:12:01;;;;;;;;;;;;;;;0.66;100.00;102394.09;5047520;28;19924;-61
2023/03/03 03:14:27;;;;;;;;;;;;;;;0.57;100.00;102392.19;5049516;28;19920;-62
2023/03/03 03:16:52;;;;;;;;;;;;;;;1.17;100.00;102391.56;5045810;28;19917;-59
2023/03/03 03:19:17;;;;;;;;;;;;;;;1.04;100.00;102393.59;5049426;28;19920;-58
2023/03/03 03:21:42;;;;;;;;;;;;;;;0.91;100.00;102403.72;5047952;28;19917;-61
2023/03/03 03:24:08;;;;;;;;;;;;;;;0.59;100.00;102406.41;5048425;28;19928;-62
2023/03/03 03:26:33;;;;;;;;;;;;;;;0.55;100.00;102404.97;5047547;28;20378;-62
2023/03/03 03:28:58;;;;;;;;;;;;;;;0.47;100.00;102411.00;5049216;28;19953;-61
2023/03/03 03:31:23;;;;;;;;;;;;;;;1.01;100.00;102412.78;5043781;28;19931;-58
2023/03/03 03:33:48;;;;;;;;;;;;;;;0.93;100.00;102412.59;5049112;28;20286;-58
2023/03/03 03:36:14;;;;;;;;;;;;;;;0.71;100.00;102408.09;5049494;28;19958;-62
2023/03/03 03:38:39;;;;;;;;;;;;;;;0.38;100.00;102415.31;5047247;28;20349;-59
2023/03/03 03:41:05;;;;;;;;;;;;;;;0.23;100.00;102416.56;5048708;28;20434;-62
2023/03/03 03:43:30;;;;;;;;;;;;;;;0.68;100.00;102413.78;5048129;28;19939;-62
2023/03/03 03:45:55;;;;;;;;;;;;;;;0.78;100.00;102407.47;5047485;28;20348;-61
2023/03/03 03:48:20;;;;;;;;;;;;;;;0.45;100.00;102412.97;5047852;28;19943;-61
2023/03/03 03:50:46;;;;;;;;;;;;;;;0.73;100.00;102407.00;5048854;28;20322;-61
2023/03/03 03:53:11;;;;;;;;;;;;;;;0.43;100.00;102402.28;5047801;28;20574;-62
2023/03/03 03:55:37;;;;;;;;;;;;;;;0.65;100.00;102408.63;5046455;28;19939;-61
2023/03/03 03:58:02;;;;;;;;;;;;;;;0.62;100.00;102409.75;5047696;28;20343;-62
2023/03/03 04:00:27;;;;;;;;;;;;;;;0.33;100.00;102419.38;5046363;28;19916;-57
2023/03/03 04:02:52;;;;;;;;;;;;;;;0.74;100.00;102415.97;5048204;28;19916;-60
2023/03/03 04:05:18;;;;;;;;;;;;;;;0.36;100.00;102419.16;5047716;28;20007;-61
2023/03/03 04:07:43;;;;;;;;;;;;;;;0.93;100.00;102416.13;5045973;28;20047;-60
2023/03/03 04:10:09;;;;;;;;;;;;;;;0.56;100.00;102417.47;5047192;28;19997;-62
2023/03/03 04:12:37;;;;;;;;;;;;;;;0.45;100.00;102421.94;5044246;28;19983;-61
2023/03/03 04:15:06;;;;;;;;;;;;;;;0.85;100.00;102423.16;5047275;28;20459;-61
2023/03/03 04:17:31;;;;;;;;;;;;;;;0.94;100.00;102425.97;5046989;28;19919;-62
2023/03/03 04:19:57;;;;;;;;;;;;;;;1.06;100.00;102417.78;5046639;28;20283;-60
2023/03/03 04:22:22;;;;;;;;;;;;;;;0.85;100.00;102417.75;5046535;28;19924;-62
2023/03/03 04:24:47;;;;;;;;;;;;;;;0.80;100.00;102417.28;5037529;28;20364;-61
2023/03/03 04:27:14;;;;;;;;;;;;;;;0.69;100.00;102419.03;5045535;28;19919;-58
2023/03/03 04:29:39;;;;;;;;;;;;;;;0.72;100.00;102416.09;5047506;28;19916;-62
2023/03/03 04:32:05;;;;;;;;;;;;;;;1.00;100.00;102420.03;5046089;28;20374;-61
2023/03/03 04:34:30;;;;;;;;;;;;;;;0.89;100.00;102417.38;5048164;28;20638;-62
2023/03/03 04:36:55;;;;;;;;;;;;;;;0.71;100.00;102421.63;5047055;28;19916;-58
2023/03/03 04:39:20;;;;;;;;;;;;;;;1.20;100.00;102420.19;5047254;28;20288;-62
2023/03/03 04:41:45;;;;;;;;;;;;;;;1.00;100.00;102420.03;5046116;28;19996;-62
2023/03/03 04:44:10;;;;;;;;;;;;;;;0.74;100.00;102422.22;5047082;28;19916;-61
2023/03/03 04:46:36;;;;;;;;;;;;;;;0.86;100.00;102425.75;5045429;28;19920;-62
2023/03/03 04:49:02;;;;;;;;;;;;;;;0.41;100.00;102425.03;5047138;28;19917;-59
2023/03/03 04:51:27;;;;;;;;;;;;;;;0.72;100.00;102431.47;5047599;28;19913;-62
2023/03/03 04:53:53;;;;;;;;;;;;;;;0.97;100.00;102425.72;5047203;28;19923;-61
2023/03/03 04:56:18;;;;;;;;;;;;;;;1.25;100.00;102426.06;5046104;28;19917;-61
2023/03/03 04:58:43;;;;;;;;;;;;;;;1.40;100.00;102423.91;5046974;28;19913;-60
2023/03/03 05:01:11;;;;;;;;;;;;;;;1.00;100.00;102430.00;5045404;28;19924;-62
2023/03/03 05:03:36;;;;;;;;;;;;;;;0.93;100.00;102426.97;5047334;28;19913;-62
2023/03/03 05:06:01;;;;;;;;;;;;;;;0.60;100.00;102424.34;5046651;28;19917;-62
2023/03/03 05:08:26;;;;;;;;;;;;;;;0.76;100.00;102433.78;5046918;28;19978;-62
2023/03/03 05:10:52;;;;;;;;;;;;;;;0.52;100.00;102425.88;5046524;28;20306;-62
2023/03/03 05:13:17;;;;;;;;;;;;;;;0.71;100.00;102432.44;5046782;28;19917;-62
2023/03/03 05:15:43;;;;;;;;;;;;;;;0.86;100.00;102433.00;5046088;28;19978;-61
2023/03/03 05:18:08;;;;;;;;;;;;;;;1.24;100.00;102440.59;5046455;28;19928;-58
2023/03/03 05:20:33;;;;;;;;;;;;;;;1.14;100.00;102435.09;5040049;28;20011;-58
2023/03/03 05:23:00;;;;;;;;;;;;;;;1.48;100.00;102433.09;5034188;28;19916;-60
2023/03/03 05:25:25;;;;;;;;;;;;;;;0.98;100.00;102435.56;5047134;28;19967;-57
2023/03/03 05:27:50;;;;;;;;;;;;;;;1.12;100.00;102442.50;5045884;28;20527;-61
2023/03/03 05:30:16;;;;;;;;;;;;;;;0.81;100.00;102433.38;5044732;28;19955;-63
2023/03/03 05:32:41;;;;;;;;;;;;;;;0.86;100.00;102433.84;5045941;28;19924;-61
2023/03/03 05:35:06;;;;;;;;;;;;;;;0.72;100.00;102434.16;5039760;28;19917;-62
2023/03/03 05:37:32;;;;;;;;;;;;;;;0.69;100.00;102437.13;5028485;28;20367;-62
2023/03/03 05:39:57;;;;;;;;;;;;;;;0.63;100.00;102433.09;5046174;28;20004;-62
2023/03/03 05:42:22;;;;;;;;;;;;;;;1.08;100.00;102443.75;5044744;28;19970;-62
2023/03/03 05:44:47;;;;;;;;;;;;;;;1.04;100.00;102439.59;5046795;28;20011;-61
2023/03/03 05:47:12;;;;;;;;;;;;;;;0.83;100.00;102431.44;5045785;28;19921;-62
2023/03/03 05:49:38;;;;;;;;;;;;;;;1.29;100.00;102435.66;5046310;28;19920;-57
2023/03/03 05:52:03;;;;;;;;;;;;;;;1.22;100.00;102443.44;5046513;28;19916;-62
2023/03/03 05:54:28;;;;;;;;;;;;;;;1.02;100.00;102438.88;5039963;28;19916;-62
2023/03/03 05:56:53;;;;;;;;;;;;;;;0.88;100.00;102442.72;5048985;28;19912;-60
2023/03/03 05:59:19;;;;;;;;;;;;;;;0.93;100.00;102439.63;5050480;28;19912;-61
2023/03/03 06:01:44;;;;;;;;;;;;;;;1.50;100.00;102441.91;5049639;28;19916;-60
2023/03/03 06:04:09;;;;;;;;;;;;;;;1.54;100.00;102440.69;5049030;28;19944;-60
2023/03/03 06:06:35;;;;;;;;;;;;;;;1.55;100.00;102444.22;5048897;28;19956;-63
2023/03/03 06:09:00;;;;;;;;;;;;;;;1.12;100.00;102447.91;5050056;28;20422;-62
2023/03/03 06:11:25;;;;;;;;;;;;;;;1.46;100.00;102445.88;5050234;28;19908;-62
2023/03/03 06:13:50;;;;;;;;;;;;;;;0.94;100.00;102455.72;5049403;28;19927;-62
2023/03/03 06:16:16;;;;;;;;;;;;;;;0.89;100.00;102447.13;5049356;28;19927;-61
2023/03/03 06:18:41;;;;;;;;;;;;;;;0.88;100.00;102458.09;5049565;28;20375;-61
2023/03/03 06:21:06;;;;;;;;;;;;;;;0.85;100.00;102461.91;5049405;28;20430;-62
2023/03/03 06:23:31;;;;;;;;;;;;;;;1.12;100.00;102461.44;5049301;28;19913;-61
2023/03/03 06:25:57;;;;;;;;;;;;;;;0.93;100.00;102464.84;5050500;28;19919;-62
2023/03/03 06:28:23;;;;;;;;;;;;;;;1.62;100.00;102464.38;5049595;28;19913;-62
2023/03/03 06:30:51;;;;;;;;;;;;;;;1.85;100.00;102472.38;5048250;28;19922;-59
2023/03/03 06:33:16;;;;;;;;;;;;;;;1.80;100.00;102470.91;5050062;28;19932;-57
2023/03/03 06:35:42;;;;;;;;;;;;;;;1.10;100.00;102481.50;5049244;28;19916;-62
2023/03/03 06:38:07;;;;;;;;;;;;;;;1.02;100.00;102484.84;5048366;28;19943;-62
2023/03/03 06:40:32;;;;;;;;;;;;;;;1.24;100.00;102484.75;5049938;28;20004;-61
2023/03/03 06:42:57;;;;;;;;;;;;;;;1.00;100.00;102492.22;5036790;28;19939;-62
2023/03/03 06:45:23;;;;;;;;;;;;;;;1.00;100.00;102493.06;5037002;28;19917;-61
2023/03/03 06:47:48;;;;;;;;;;;;;;;1.14;100.00;102499.19;5042211;28;19928;-59
2023/03/03 06:50:17;;;;;;;;;;;;;;;1.06;100.00;102497.13;5048698;28;19923;-62
2023/03/03 06:52:42;;;;;;;;;;;;;;;1.02;100.00;102501.09;5049212;28;19940;-62
2023/03/03 06:55:17;;;;;;;;;;;;;;;1.02;100.00;102518.19;5048428;28;20804;-59
2023/03/03 06:57:42;;;;;;;;;;;;;;;1.04;100.00;102512.63;5048154;28;19924;-61
2023/03/03 07:00:15;;;;;;;;;;;;;;;1.13;100.00;102511.88;5047981;28;19920;-62
2023/03/03 07:02:40;;;;;;;;;;;;;;;1.07;100.00;102504.28;5048673;28;20398;-62
2023/03/03 07:05:16;;;;;;;;;;;;;;;1.26;100.00;102509.84;5047406;28;19917;-62
2023/03/03 07:07:41;;;;;;;;;;;;;;;1.15;100.00;102507.16;5049038;28;19917;-62
2023/03/03 07:10:15;;;;;;;;;;;;;;;1.68;100.00;102514.47;5049582;28;20295;-62
2023/03/03 07:12:40;;;;;;;;;;;;;;;1.21;100.00;102517.47;5048090;28;19981;-62
2023/03/03 07:15:17;;;;;;;;;;;;;;;1.39;100.00;102515.09;5047432;28;19917;-62
2023/03/03 07:17:44;;;;;;;;;;;;;;;1.99;100.00;102504.53;5048555;28;19912;-63
2023/03/03 07:20:23;;;;;;;;;;;;;;;1.36;100.00;102515.34;5048671;28;20061;-62
2023/03/03 07:22:48;;;;;;;;;;;;;;;1.30;100.00;102521.28;5049425;28;19909;-62
2023/03/03 07:25:19;;;;;;;;;;;;;;;1.98;100.00;102519.09;5047619;28;19920;-60
2023/03/03 07:27:44;;;;;;;;;;;;;;;1.95;100.00;102524.75;5028089;28;19909;-66
2023/03/03 07:30:15;;;;;;;;;;;;;;;2.00;100.00;102517.09;5028306;28;20403;-61
2023/03/03 07:32:42;;;;;;;;;;;;;;;1.74;100.00;102531.03;5041656;28;19924;-60
2023/03/03 07:35:39;;;;;;;;;;;;;;;2.07;100.00;102529.09;5045475;28;19986;-62
2023/03/03 07:38:15;;;;;;;;;;;;;;;2.04;100.00;102530.25;4992266;28;20341;-61
2023/03/03 07:40:46;;;;;;;;;;;;;;;1.51;100.00;102529.41;5048598;28;20015;-62
2023/03/03 07:43:30;;;;;;;;;;;;;;;2.08;100.00;102528.13;5038534;28;19921;-62
2023/03/03 07:46:00;;;;;;;;;;;;;;;2.17;100.00;102537.28;5040238;28;19916;-62
2023/03/03 07:48:29;;;;;;;;;;;;;;;2.11;100.00;102546.81;5047673;28;19923;-62
2023/03/03 07:50:56;;;;;;;;;;;;;;;2.03;100.00;102547.50;5048151;28;19917;-62
2023/03/03 07:53:33;;;;;;;;;;;;;;;1.44;100.00;102549.91;5046778;28;20423;-60
2023/03/03 07:55:58;;;;;;;;;;;;;;;1.41;100.00;102555.56;5044741;28;19917;-60
2023/03/03 07:58:28;;;;;;;;;;;;;;;1.40;100.00;102551.13;5047350;28;19963;-62
2023/03/03 08:01:12;;;;;;;;;;;;;;;1.38;100.00;102551.28;5046079;28;19970;-60
2023/03/03 08:03:37;;;;;;;;;;;;;;;1.37;100.00;102554.09;5040806;28;21321;-62
2023/03/03 08:06:29;;;;;;;;;;;;;;;1.41;100.00;102552.84;5029239;28;19921;-63
2023/03/03 08:09:00;;;;;;;;;;;;;;;1.42;100.00;102558.16;5038548;28;20003;-62
2023/03/03 08:11:25;;;;;;;;;;;;;;;1.49;100.00;102558.50;5045479;28;19917;-62
2023/03/03 08:13:50;;;;;;;;;;;;;;;1.50;100.00;102566.47;5045537;28;20323;-62
2023/03/03 08:16:15;;;;;;;;;;;;;;;1.56;100.00;102559.69;5047222;28;19920;-59
2023/03/03 08:18:45;;;;;;;;;;;;;;;1.87;100.00;102570.59;5046599;28;20019;-62
2023/03/03 08:21:12;;;;;;;;;;;;;;;1.69;100.00;102570.34;5047936;28;20355;-62
2023/03/03 08:23:37;;;;;;;;;;;;;;;1.90;100.00;102565.78;5047987;28;19919;-62
2023/03/03 08:26:03;;;;;;;;;;;;;;;1.94;100.00;102561.84;5028075;28;20291;-61
2023/03/03 08:28:28;;;;;;;;;;;;;;;1.94;100.00;102569.97;5045487;28;20398;-62
2023/03/03 08:30:53;;;;;;;;;;;;;;;2.10;100.00;102569.50;5045517;28;20007;-62
2023/03/03 08:33:18;;;;;;;;;;;;;;;2.44;99.25;102572.84;5044154;28;19923;-58
2023/03/03 08:35:44;;;;;;;;;;;;;;;1.95;100.00;102579.81;5047738;28;19920;-62
2023/03/03 08:38:10;;;;;;;;;;;;;;;2.69;99.96;102584.22;5047991;28;19913;-60
2023/03/03 08:40:36;;;;;;;;;;;;;;;2.72;98.59;102586.66;5043193;28;19928;-59
2023/03/03 08:43:02;;;;;;;;;;;;;;;2.18;99.98;102587.78;5041051;28;19917;-62
2023/03/03 08:45:28;;;;;;;;;;;;;;;1.88;100.00;102597.59;5045649;28;20040;-62
2023/03/03 08:47:53;;;;;;;;;;;;;;;2.69;99.46;102590.50;5043074;28;20384;-61
2023/03/03 08:50:19;;;;;;;;;;;;;;;2.48;100.00;102593.25;5045373;28;19923;-60
2023/03/03 08:52:44;;;;;;;;;;;;;;;2.42;100.00;102601.06;5033648;28;19916;-61
2023/03/03 08:55:10;;;;;;;;;;;;;;;2.04;100.00;102592.56;5046628;28;19925;-61
2023/03/03 08:57:35;;;;;;;;;;;;;;;2.37;98.54;102598.75;5046081;28;19917;-61
2023/03/03 09:00:00;;;;;;;;;;;;;;;2.53;100.00;102593.69;5038267;28;19917;-60
2023/03/03 09:02:26;;;;;;;;;;;;;;;2.15;100.00;102598.91;5040357;28;19920;-62
2023/03/03 09:04:51;;;;;;;;;;;;;;;2.44;98.98;102596.38;5043420;28;19921;-61
2023/03/03 09:07:16;;;;;;;;;;;;;;;2.25;100.00;102607.97;5038102;28;20326;-62
2023/03/03 09:09:41;;;;;;;;;;;;;;;2.35;100.00;102595.31;5037246;28;19921;-62
2023/03/03 09:12:23;;;;;;;;;;;;;;;2.43;100.00;102597.34;5040986;28;20290;-62
2023/03/03 09:14:50;;;;;;;;;;;;;;;2.58;100.00;102601.44;5043811;28;19923;-62
2023/03/03 09:17:30;;;;;;;;;;;;;;;2.72;98.53;102602.94;5041621;28;19921;-62
2023/03/03 09:19:58;;;;;;;;;;;;;;;2.84;97.11;102599.13;5041169;28;20039;-62
2023/03/03 09:22:24;;;;;;;;;;;;;;;2.97;97.09;102605.16;5043851;28;19916;-62
2023/03/03 09:24:52;;;;;;;;;;;;;;;2.68;98.12;102604.19;5044466;28;20328;-62
2023/03/03 09:27:22;;;;;;;;;;;;;;;2.71;100.00;102602.06;5043678;28;20375;-62
2023/03/03 09:29:47;;;;;;;;;;;;;;;2.83;98.94;102605.53;5044986;28;19963;-62
2023/03/03 09:32:23;;;;;;;;;;;;;;;2.80;100.00;102597.69;5050343;28;19963;-62
2023/03/03 09:34:48;;;;;;;;;;;;;;;2.78;100.00;102605.09;5050249;28;20410;-61
2023/03/03 09:37:17;;;;;;;;;;;;;;;3.14;99.35;102614.50;5048770;28;19924;-62
2023/03/03 09:39:43;;;;;;;;;;;;;;;3.35;97.85;102609.00;5031497;28;20363;-62
2023/03/03 09:42:20;;;;;;;;;;;;;;;3.26;96.98;102620.69;5048246;28;19921;-63
2023/03/03 09:45:00;;;;;;;;;;;;;;;3.01;99.02;102617.47;5041366;28;19923;-62
2023/03/03 09:47:45;;;;;;;;;;;;;;;3.52;96.18;102612.88;5034980;28;19970;-63
2023/03/03 09:50:17;;;;;;;;;;;;;;;3.50;95.57;102614.88;5045807;28;19950;-62
2023/03/03 09:52:49;;;;;;;;;;;;;;;3.32;96.35;102614.69;5046899;28;19985;-63
2023/03/03 09:55:24;;;;;;;;;;;;;;;3.23;95.83;102612.81;5031672;28;20250;-62
2023/03/03 09:58:08;;;;;;;;;;;;;;;3.07;96.70;102611.47;5033503;28;19924;-62
2023/03/03 10:00:41;;;;;;;;;;;;;;;3.15;97.38;102615.38;5039022;28;20009;-62
2023/03/03 10:03:12;;;;;;;;;;;;;;;3.33;96.05;102613.69;5050090;28;19924;-62
2023/03/03 10:05:43;;;;;;;;;;;;;;;3.14;96.89;102619.91;5047762;28;19994;-62
2023/03/03 10:08:08;;;;;;;;;;;;;;;3.32;96.97;102622.84;5038906;28;19952;-61
2023/03/03 10:10:33;;;;;;;;;;;;;;;3.60;95.29;102613.88;5037912;28;20387;-62
2023/03/03 10:12:58;;;;;;;;;;;;;;;3.20;97.52;102618.53;5047786;28;19917;-62
2023/03/03 10:15:31;;;;;;;;;;;;;;;3.58;95.27;102612.28;5049236;28;20115;-62
2023/03/03 10:18:08;;;;;;;;;;;;;;;3.43;94.56;102622.72;5048964;28;19917;-63
2023/03/03 10:20:34;;;;;;;;;;;;;;;3.80;92.25;102630.19;5048615;28;19916;-61
2023/03/03 10:23:14;;;;;;;;;;;;;;;3.85;92.55;102625.19;5047849;28;19970;-62
2023/03/03 10:25:41;;;;;;;;;;;;;;;3.38;94.55;102633.13;5046238;28;19921;-62
2023/03/03 10:28:18;;;;;;;;;;;;;;;3.84;92.69;102623.47;5045129;28;20341;-59
2023/03/03 10:30:43;;;;;;;;;;;;;;;3.28;96.10;102627.69;5047760;28;19978;-60
2023/03/03 10:33:18;;;;;;;;;;;;;;;3.81;94.10;102619.19;5042524;28;21769;-62
2023/03/03 10:35:49;;;;;;;;;;;;;;;3.73;93.82;102620.91;5028814;28;20304;-62
2023/03/03 10:38:33;;;;;;;;;;;;;;;3.52;96.64;102629.16;5046906;28;19917;-63
2023/03/03 10:41:03;;;;;;;;;;;;;;;3.68;95.62;102626.75;5044076;28;20027;-62
2023/03/03 10:43:28;;;;;;;;;;;;;;;3.75;96.52;102624.31;5049385;28;20636;-61
2023/03/03 10:46:02;;;;;;;;;;;;;;;3.85;96.53;102625.19;5052599;28;20020;-61
2023/03/03 10:48:46;;;;;;;;;;;;;;;4.25;93.17;102616.00;5045244;28;19920;-62
2023/03/03 10:51:30;;;;;;;;;;;;;;;3.93;94.74;102622.59;5051904;28;19917;-63
2023/03/03 10:54:14;;;;;;;;;;;;;;;4.03;95.28;102623.47;5038642;28;20015;-63
2023/03/03 10:56:58;;;;;;;;;;;;;;;4.28;95.47;102622.00;5048203;28;19916;-63
2023/03/03 10:59:23;;;;;;;;;;;;;;;4.12;94.40;102617.16;5047476;28;19923;-62
2023/03/03 11:02:00;;;;;;;;;;;;;;;4.72;90.24;102616.88;5047183;28;19917;-62
2023/03/03 11:04:43;;;;;;;;;;;;;;;4.52;90.16;102613.38;5042194;28;20015;-62
2023/03/03 11:07:21;;;;;;;;;;;;;;;4.40;93.01;102622.69;5045512;28;19921;-62
2023/03/03 11:10:06;;;;;;;;;;;;;;;5.39;88.03;102609.38;5045678;28;19916;-61
2023/03/03 11:12:46;;;;;;;;;;;;;;;5.87;84.18;102602.69;5047726;28;19972;-62
2023/03/03 11:15:11;;;;;;;;;;;;;;;5.52;85.00;102604.38;5048761;28;19923;-63
2023/03/03 11:17:47;;;;;;;;;;;;;;;5.57;84.42;102607.50;5046715;28;20275;-61
2023/03/03 11:20:27;;;;;;;;;;;;;;;4.97;86.87;102611.75;5047997;28;19920;-63
2023/03/03 11:23:15;;;;;;;;;;;;;;;4.79;89.19;102615.25;5046987;28;20636;-63
2023/03/03 11:25:45;;;;;;;;;;;;;;;4.91;88.89;102611.34;5022317;28;19913;-63
2023/03/03 11:28:17;;;;;;;;;;;;;;;5.09;88.76;102608.69;5044820;28;19921;-63
2023/03/03 11:30:57;;;;;;;;;;;;;;;5.09;89.30;102602.38;5030650;28;19975;-63
2023/03/03 11:33:25;;;;;;;;;;;;;;;5.27;87.43;102592.38;5047351;28;19923;-59
2023/03/03 11:36:10;;;;;;;;;;;;;;;5.20;88.94;102596.72;5046239;28;20291;-62
2023/03/03 11:38:46;;;;;;;;;;;;;;;5.33;86.35;102597.22;5045956;28;19916;-60
2023/03/03 11:41:20;;;;;;;;;;;;;;;5.93;82.92;102586.59;5044128;28;19916;-62
2023/03/03 11:43:48;;;;;;;;;;;;;;;6.97;83.82;102588.44;5040642;28;19966;-62
2023/03/03 11:46:17;;;;;;;;;;;;;;;8.03;80.68;102585.91;5047018;28;19940;-60
2023/03/03 11:48:51;;;;;;;;;;;;;;;8.87;70.51;102578.22;5048659;28;19924;-62
2023/03/03 11:51:27;;;;;;;;;;;;;;;10.20;71.03;102577.03;5048857;28;20283;-63
2023/03/03 11:53:55;;;;;;;;;;;;;;;11.15;62.66;102584.56;5044604;28;19917;-62
2023/03/03 11:56:26;;;;;;;;;;;;;;;12.25;59.06;102581.53;5046592;28;20544;-62
2023/03/03 11:58:51;;;;;;;;;;;;;;;14.07;57.42;102575.56;5048339;28;19979;-62
2023/03/03 12:01:25;;;;;;;;;;;;;;;14.11;59.02;102574.06;5045956;28;20368;-61
2023/03/03 12:03:59;;;;;;;;;;;;;;;15.00;56.14;102579.94;5045131;28;20011;-63
2023/03/03 12:06:30;;;;;;;;;;;;;;;15.21;53.02;102575.19;5047966;28;19967;-62
2023/03/03 12:08:55;;;;;;;;;;;;;;;15.21;54.87;102580.72;5048203;28;19919;-61
2023/03/03 12:11:21;;;;;;;;;;;;;;;14.50;57.34;102570.50;5046678;28;19920;-62
2023/03/03 12:13:56;;;;;;;;;;;;;;;13.67;58.93;102569.97;5047228;28;20019;-62
2023/03/03 12:16:27;;;;;;;;;;;;;;;12.44;60.32;102578.06;5045436;28;20362;-58
2023/03/03 12:18:59;;;;;;;;;;;;;;;11.26;66.16;102578.59;5046457;28;19963;-62
2023/03/03 12:21:34;;;;;;;;;;;;;;;10.45;69.15;102569.44;5047932;28;20385;-62
2023/03/03 12:24:27;;;;;;;;;;;;;;;9.69;71.79;102571.28;5047293;28;19967;-62
2023/03/03 12:27:11;;;;;;;;;;;;;;;9.13;76.13;102573.34;5046977;28;19943;-62
2023/03/03 12:29:56;;;;;;;;;;;;;;;9.03;76.24;102562.59;5046697;28;19923;-62
2023/03/03 12:32:21;;;;;;;;;;;;;;;9.29;77.58;102562.28;5039484;28;19974;-62
2023/03/03 12:34:53;;;;;;;;;;;;;;;9.54;75.05;102562.13;5038263;28;19917;-62
2023/03/03 12:37:26;;;;;;;;;;;;;;;9.78;64.67;102553.72;5037711;28;19923;-62
2023/03/03 12:39:57;;;;;;;;;;;;;;;9.03;66.85;102561.75;5044706;28;19924;-62
2023/03/03 12:42:28;;;;;;;;;;;;;;;8.45;71.28;102552.88;5043881;28;20382;-62
2023/03/03 12:45:06;;;;;;;;;;;;;;;8.63;70.19;102549.06;5044854;28;19921;-60
2023/03/03 12:47:39;;;;;;;;;;;;;;;8.57;72.74;102546.00;5028757;28;19916;-62